• Join FlightAware (Why Join?)
  • Login
  • US Flag 
01:48PM EDT


 

Airport Tracker/Info


-or-


 

Live Flight TrackerFlight Track Log ✈ UAL495 ✈ 27-Apr-2013 ✈ KDEN - KIAD

Flight Track Log - Related Links

Times and Time Zones

All times are in EDT time to prevent confusion due to time zone crossing. See the UAL495 flight status page for this flight to view local times or setup timezone preferences in your user account.

Time Position Orientation Groundspeed Altitude Reporting Facility
EDT Latitude Longitude Course Direction KTS MPH feet Rate Location/Type
12:32PM 39.9000 -104.7000 90° East 194 223 6,800  Level Denver TRACON
12:32PM 39.9281 -104.6939 North 201 231 7,400 2,040 Climbing Denver Center
12:33PM 39.9847 -104.6431 34° Northeast 263 303 9,800 1,740 Climbing Denver Center
12:33PM 39.9833 -104.6000 92° East 305 351 10,000 60 Climbing Denver TRACON
12:34PM 39.8667 -104.1956 90° East  Level FlightAware Approximate
12:35PM 39.8667 -104.0382 90° East  Level FlightAware Approximate
12:35PM 39.9553 -104.4167 101° East 305 351 10,000  Level Denver Center
12:36PM 39.8667 -103.8808 90° East  Level FlightAware Approximate
12:36PM 39.9353 -104.3044 103° East 320 368 10,800  Level Denver Center
12:37PM 39.8833 -103.7268 90° East  Level FlightAware Approximate
12:37PM 39.9119 -104.1936 105° East 369 425 12,100  Level Denver Center
12:38PM 39.8692 -104.0400 110° East 354 407 17,300 3,360 Climbing Denver Center
12:39PM 39.8583 -103.9214 97° East 342 394 19,100 1,320 Climbing Denver Center
12:40PM 39.8689 -103.7739 85° East 386 444 20,100 1,440 Climbing Denver Center
12:41PM 39.8781 -103.6264 85° East 393 452 22,100 1,500 Climbing Denver Center
12:42PM 39.8897 -103.4711 84° East 423 487 23,300 1,260 Climbing Denver Center
12:43PM 39.9019 -103.3100 84° East 440 506 24,800 1,380 Climbing Denver Center
12:44PM 39.9136 -103.1442 85° East 452 520 26,200 1,200 Climbing Denver Center
12:45PM 39.9233 -102.9756 86° East 462 532 27,400 1,320 Climbing Denver Center
12:46PM 39.9356 -102.8047 85° East 468 539 29,000 840 Climbing Denver Center
12:48PM 39.9436 -102.6583 86° East 467 537 29,200 960 Climbing Denver Center
12:49PM 39.9561 -102.4428 86° East 469 540 31,000 1,500 Climbing Denver Center
12:50PM 39.9667 -102.2869 85° East 453 521 32,400 1,380 Climbing Denver Center
12:51PM 39.9767 -102.1053 86° East 451 519 33,900 1,200 Climbing Denver Center
12:52PM 39.9856 -101.9533 86° East 441 507 34,900 480 Climbing Denver Center
12:53PM 39.9964 -101.7744 85° East 445 512 35,000  Climbing Denver Center
12:54PM 40.0047 -101.6203 86° East 446 513 35,000  Level Denver Center
12:55PM 40.0144 -101.4378 86° East 453 521 35,000  Level Denver Center
12:56PM 40.0247 -101.2300 86° East 452 520 35,000  Level Denver Center
12:57PM 40.0325 -101.0481 87° East 453 521 35,000  Level Denver Center
12:58PM 40.0422 -100.8667 86° East 451 519 35,000  Level Denver Center
12:59PM 40.0497 -100.7119 86° East 449 517 35,000  Level Denver Center
01:00PM 40.0581 -100.5317 86° East 447 514 35,000  Level Denver Center
01:01PM 40.0647 -100.3769 87° East 448 516 35,000  Level Denver Center
01:02PM 40.0708 -100.1969 87° East 447 514 35,000  Level Denver Center
01:03PM 40.0767 -100.0411 87° East 450 518 35,000  Level Denver Center
01:04PM 40.0836 -99.8639 87° East 448 516 35,000  Level Denver Center
01:06PM 40.0908 -99.7017 87° East 449 517 35,000  Level Denver Center
01:07PM 40.0961 -99.5378 88° East 453 521 35,000  Level Denver Center
01:08PM 40.1025 -99.3775 87° East 446 513 35,000  Level Denver Center
01:09PM 40.1092 -99.1817 87° East 450 518 35,000  Level Denver Center
01:10PM 40.1147 -99.0189 87° East 451 519 35,000  Level Denver Center
01:11PM 40.1186 -98.8556 88° East 452 520 35,000  Level Denver Center
01:11PM 40.1225 -98.7594 87° East 451 519 35,000  Level Minneapolis Center
01:12PM 40.1272 -98.5944 88° East 453 521 35,000  Level Minneapolis Center
01:13PM 40.1311 -98.4300 88° East 454 522 35,000  Level Minneapolis Center
01:14PM 40.1356 -98.2661 88° East 454 522 35,000  Level Minneapolis Center
01:15PM 40.1386 -98.1025 89° East 453 521 35,000  Level Minneapolis Center
01:16PM 40.1428 -97.9058 88° East 453 521 35,000  Level Minneapolis Center
01:17PM 40.1458 -97.7428 89° East 451 519 35,000  Level Minneapolis Center
01:18PM 40.1503 -97.5783 88° East 452 520 35,000  Level Minneapolis Center
01:19PM 40.1531 -97.4133 89° East 455 524 35,000  Level Minneapolis Center
01:21PM 40.1561 -97.2475 89° East 455 524 35,000  Level Minneapolis Center
01:22PM 40.1583 -97.0836 89° East 454 522 35,000  Level Minneapolis Center
01:23PM 40.1611 -96.9181 89° East 455 524 35,000  Level Minneapolis Center
01:24PM 40.1622 -96.7175 90° East 457 526 35,000  Level Minneapolis Center
01:25PM 40.1642 -96.5514 89° East 458 527 35,000  Level Minneapolis Center
01:26PM 40.1658 -96.3850 89° East 459 528 35,000  Level Minneapolis Center
01:27PM 40.1667 -96.2172 90° East 460 529 35,000  Level Minneapolis Center
01:28PM 40.1683 -96.0525 89° East 460 529 35,000  Level Minneapolis Center
01:29PM 40.1689 -95.8850 90° East 461 531 35,000  Level Minneapolis Center
01:30PM 40.1697 -95.7186 90° East 461 531 35,000  Level Minneapolis Center
01:32PM 40.1697 -95.3919 90° East 462 532 35,000  Level Kansas City Center
01:33PM 40.1689 -95.2017 90° East 466 536 35,000  Level Kansas City Center
01:34PM 40.1697 -95.0136 90° East 465 535 35,000  Level Minneapolis Center
01:35PM 40.1692 -94.8453 90° East 465 535 35,000  Level Minneapolis Center
01:36PM 40.1689 -94.6761 90° East 466 536 35,000  Level Minneapolis Center
01:37PM 40.1667 -94.4856 91° East 468 539 35,000  Level Minneapolis Center
01:38PM 40.1642 -94.3339 91° East 473 544 35,000  Level Kansas City Center
01:39PM 40.1625 -94.1683 91° East 474 545 35,000  Level Kansas City Center
01:40PM 40.1561 -93.9700 92° East 483 556 35,000  Level Kansas City Center
01:41PM 40.1547 -93.7978 91° East 481 554 35,000  Level Kansas City Center
01:42PM 40.1525 -93.6275 91° East 475 547 35,000  Level Kansas City Center
01:43PM 40.1497 -93.4556 91° East 477 549 35,000  Level Kansas City Center
01:44PM 40.1489 -93.2836 90° East 478 550 35,000  Level Kansas City Center
01:45PM 40.1431 -93.0772 92° East 477 549 35,000  Level Kansas City Center
01:46PM 40.1400 -92.9200 91° East 477 549 35,000  Level Kansas City Center
01:47PM 40.1364 -92.7219 91° East 486 559 35,000  Level Kansas City Center
01:48PM 40.1347 -92.5536 91° East 487 560 35,000  Level Kansas City Center
01:49PM 40.1475 -92.3567 85° East 485 558 35,000  Level Kansas City Center
01:50PM 40.1553 -92.1769 87° East 495 570 35,000  Level Kansas City Center
01:51PM 40.1653 -91.9992 86° East 496 571 35,000  Level Kansas City Center
01:52PM 40.1731 -91.8203 87° East 498 573 35,000  Level Kansas City Center
01:53PM 40.1808 -91.6414 87° East 498 573 35,000  Level Kansas City Center
01:54PM 40.1900 -91.4250 87° East 500 575 35,000  Level Kansas City Center
01:55PM 40.1994 -91.2442 86° East 502 578 35,000  Level Kansas City Center
01:56PM 40.2058 -91.0631 87° East 503 579 35,000  Level Kansas City Center
01:57PM 40.2131 -90.8836 87° East 504 580 35,000  Level Kansas City Center
01:59PM 40.2222 -90.6631 87° East 507 583 35,000  Level Chicago Center
02:00PM 40.2281 -90.4775 88° East 510 587 35,000  Level Chicago Center
02:01PM 40.2339 -90.2922 88° East 511 588 35,000  Level Chicago Center
02:02PM 40.2397 -90.1086 88° East 510 587 35,000  Level Chicago Center
02:03PM 40.2461 -89.8875 88° East 512 589 35,000  Level Chicago Center
02:04PM 40.2519 -89.7039 88° East 510 587 35,000  Level Chicago Center
02:05PM 40.2561 -89.5192 88° East 513 590 35,000  Level Chicago Center
02:06PM 40.2619 -89.3353 88° East 511 588 35,000  Level Chicago Center
02:07PM 40.2669 -89.1481 88° East 516 594 35,000  Level Chicago Center
02:08PM 40.2714 -88.9622 88° East 515 593 35,000  Level Chicago Center
02:09PM 40.2764 -88.7369 88° East 518 596 35,000  Level Chicago Center
02:10PM 40.2789 -88.5478 89° East 520 598 35,000  Level Chicago Center
02:11PM 40.2831 -88.3747 88° East 519 597 35,000  Level Chicago Center
02:12PM 40.2856 -88.1872 89° East 520 598 35,000  Level Chicago Center
02:13PM 40.2892 -87.9614 89° East 519 597 35,000  Level Chicago Center
02:14PM 40.2914 -87.7728 89° East 523 602 35,000  Level Chicago Center
02:15PM 40.2950 -87.5842 89° East 524 603 35,000  Level Chicago Center
02:16PM 40.2936 -87.3894 90° East 523 602 35,000  Level Chicago Center
02:17PM 40.2914 -87.1972 91° East 524 603 35,000  Level Chicago Center
02:18PM 40.2892 -87.0047 91° East 525 604 35,000  Level Chicago Center
02:19PM 40.2861 -86.8114 91° East 527 606 35,000  Level Chicago Center
02:20PM 40.2842 -86.6175 91° East 526 605 35,000  Level Chicago Center
02:21PM 40.2800 -86.3925 91° East 525 604 35,000  Level Chicago Center
02:22PM 40.2778 -86.1978 91° East 529 609 35,000  Level Chicago Center
02:23PM 40.2739 -86.0014 91° East 534 615 35,000  Level Chicago Center
02:24PM 40.2675 -85.8031 92° East 539 620 35,000  Level Chicago Center
02:25PM 40.2639 -85.6061 91° East 539 620 35,000  Level Chicago Center
02:26PM 40.2494 -85.4094 95° East 554 638 35,000  Level Chicago Center
02:27PM 40.2106 -85.2247 105° East 534 615 35,000  Level Chicago Center
02:28PM 40.1711 -85.0389 105° East 527 606 35,000 -60 Level Indianapolis Center
02:29PM 40.1308 -84.8458 105° East 527 606 34,900  Descending Indianapolis Center
02:30PM 40.1022 -84.6544 101° East 534 615 35,000  Climbing Indianapolis Center
02:31PM 40.0992 -84.4553 91° East 542 624 34,900  Descending Indianapolis Center
02:33PM 40.0983 -84.2556 90° East 545 627 35,000  Climbing Indianapolis Center
02:34PM 40.0953 -84.0547 91° East 546 628 35,000  Level Indianapolis Center
02:35PM 40.0936 -83.8517 91° East 551 634 35,000  Level Indianapolis Center
02:36PM 40.0900 -83.6486 91° East 549 632 35,000  Level Indianapolis Center
02:37PM 40.0875 -83.4444 91° East 550 633 35,000  Level Indianapolis Center
02:38PM 40.0850 -83.2417 91° East 547 629 35,000  Level Indianapolis Center
02:39PM 40.1053 -83.0422 82° East 545 627 35,000  Level Indianapolis Center
02:40PM 40.1281 -82.8097 83° East 547 629 35,000  Level Indianapolis Center
02:41PM 40.1311 -82.6119 89° East 539 620 35,000 -60 Level Indianapolis Center
02:42PM 40.1194 -82.4139 94° East 542 624 34,900 -60 Descending Indianapolis Center
02:43PM 40.1089 -82.2150 94° East 543 625 34,900  Level Indianapolis Center
02:44PM 40.0967 -82.0153 95° East 546 628 34,900  Level Indianapolis Center
02:45PM 40.0853 -81.8164 94° East 546 628 35,000  Climbing Indianapolis Center
02:46PM 40.0711 -81.6158 95° East 547 629 35,000  Level Indianapolis Center
02:47PM 40.0589 -81.4150 94° East 551 634 35,000  Level Indianapolis Center
02:48PM 40.0458 -81.2136 95° East 554 638 35,000  Level Indianapolis Center
02:48PM 40.0408 -81.1064 93° East 544 626 35,000 -120 Level Cleveland Center
02:49PM 40.0250 -80.8922 95° East 537 618 34,900 -1,380 Descending Cleveland Center
02:50PM 39.9711 -80.7131 111° Southeast 527 606 32,300 -1,500 Descending Cleveland Center
02:51PM 39.8919 -80.5453 122° Southeast 522 601 32,000 -360 Descending Cleveland Center
02:52PM 39.8106 -80.3803 123° Southeast 533 613 31,600 -1,620 Descending Cleveland Center
02:54PM 39.6786 -80.1122 123° Southeast 540 621 27,800 -2,100 Descending Indianapolis Center
02:55PM 39.6561 -80.0553 117° Southeast 531 611 27,200 -540 Descending Washington Center
02:56PM 39.5842 -79.9081 122° Southeast 508 585 27,000 -120 Descending Washington Center
02:57PM 39.5381 -79.7411 110° East 494 568 27,000  Level Washington Center
02:58PM 39.5064 -79.5697 103° East 478 550 27,000 -240 Level Washington Center
02:59PM 39.4783 -79.4069 103° East 483 556 26,600 -1,320 Descending Washington Center
03:00PM 39.4439 -79.2358 105° East 461 531 24,400 -2,220 Descending Washington Center
03:01PM 39.4211 -79.0894 101° East 438 504 22,300 -2,160 Descending Washington Center
03:02PM 39.3919 -78.9431 104° East 413 475 20,100 -2,220 Descending Washington Center
03:03PM 39.3667 -78.8022 103° East 407 468 17,800 -2,100 Descending Washington Center
03:04PM 39.3431 -78.6697 103° East 395 455 16,000 -1,680 Descending Washington Center
03:05PM 39.3211 -78.5481 103° East 371 427 14,500 -1,620 Descending Washington Center
03:06PM 39.2989 -78.4292 104° East 350 403 12,800 -1,620 Descending Washington Center
03:07PM 39.2639 -78.3206 113° Southeast 333 383 11,400 -1,020 Descending Washington Center
03:08PM 39.2158 -78.2331 125° Southeast 315 362 10,800 -900 Descending Washington Center
03:09PM 39.1719 -78.1483 124° Southeast 295 339 9,600 -1,260 Descending Washington Center
03:10PM 39.1297 -78.0694 125° Southeast 282 325 8,300 -1,380 Descending Washington Center
03:11PM 39.0875 -77.9878 124° Southeast 276 318 6,900 -1,200 Descending Washington Center
03:12PM 39.0453 -77.9089 125° Southeast 271 312 6,000 -480 Descending Washington Center
03:13PM 39.0072 -77.8381 125° Southeast 271 312 6,000  Level Washington Center
03:14PM 38.9650 -77.7514 122° Southeast 271 312 6,000  Level Washington Center
03:16PM 39.0167 -77.5833 68° East 284 327 6,000  Level Potomac TRACON
03:17PM 39.0833 -77.5667 11° North 274 315 6,000  Level Potomac TRACON
03:18PM 39.1333 -77.5667 360° North 211 243 6,000 -540 Level Potomac TRACON
03:19PM 39.1833 -77.5667 360° North 189 217 5,000 -540 Descending Potomac TRACON
03:20PM 39.2167 -77.5167 49° Northeast 185 213 5,000 -600 Level Potomac TRACON
03:21PM 39.1833 -77.4667 131° Southeast 181 208 3,900 -840 Descending Potomac TRACON
03:22PM 39.1333 -77.4500 166° South 180 207 3,400 -600 Descending Potomac TRACON
03:22PM 39.1000 -77.4500 180° South 178 205 2,800 -660 Descending Potomac TRACON